sensor_id;sensor_type;location;lat;lon;timestamp;pressure;altitude;pressure_sealevel;temperature
12430;BMP280;6279;42.192;24.326;2022-09-03T00:00:15;98817.38;;;20.02
12430;BMP280;6279;42.192;24.326;2022-09-03T00:05:55;98813.59;;;19.98
12430;BMP280;6279;42.192;24.326;2022-09-03T00:12:20;98820.38;;;19.94
12430;BMP280;6279;42.192;24.326;2022-09-03T00:17:24;98815.31;;;19.81
12430;BMP280;6279;42.192;24.326;2022-09-03T00:20:16;98816.47;;;19.74
12430;BMP280;6279;42.192;24.326;2022-09-03T00:22:45;98824.84;;;19.71
12430;BMP280;6279;42.192;24.326;2022-09-03T00:25:17;98838.72;;;19.67
12430;BMP280;6279;42.192;24.326;2022-09-03T00:27:46;98827.94;;;19.68
12430;BMP280;6279;42.192;24.326;2022-09-03T00:30:15;98820.81;;;19.69
12430;BMP280;6279;42.192;24.326;2022-09-03T00:32:46;98842.16;;;19.67
12430;BMP280;6279;42.192;24.326;2022-09-03T00:35:34;98841.34;;;19.67
12430;BMP280;6279;42.192;24.326;2022-09-03T00:38:02;98846.91;;;19.59
12430;BMP280;6279;42.192;24.326;2022-09-03T00:40:32;98834.09;;;19.62
12430;BMP280;6279;42.192;24.326;2022-09-03T00:43:14;98839.94;;;19.64
12430;BMP280;6279;42.192;24.326;2022-09-03T00:51:48;98833.56;;;19.72
12430;BMP280;6279;42.192;24.326;2022-09-03T00:56:51;98838.25;;;19.70
12430;BMP280;6279;42.192;24.326;2022-09-03T01:05:36;98838.25;;;19.70
12430;BMP280;6279;42.192;24.326;2022-09-03T01:13:54;98843.72;;;19.57
12430;BMP280;6279;42.192;24.326;2022-09-03T01:32:24;98846.31;;;19.46
12430;BMP280;6279;42.192;24.326;2022-09-03T01:35:03;98845.03;;;19.48
12430;BMP280;6279;42.192;24.326;2022-09-03T01:43:41;98847.03;;;19.53
12430;BMP280;6279;42.192;24.326;2022-09-03T01:46:17;98848.28;;;19.50
12430;BMP280;6279;42.192;24.326;2022-09-03T01:49:03;98843.38;;;19.54
12430;BMP280;6279;42.192;24.326;2022-09-03T01:51:31;98848.88;;;19.52
12430;BMP280;6279;42.192;24.326;2022-09-03T02:00:04;98842.28;;;19.43
12430;BMP280;6279;42.192;24.326;2022-09-03T02:02:30;98841.84;;;19.46
12430;BMP280;6279;42.192;24.326;2022-09-03T02:07:38;98851.59;;;19.46
12430;BMP280;6279;42.192;24.326;2022-09-03T02:10:10;98850.91;;;19.39
12430;BMP280;6279;42.192;24.326;2022-09-03T02:12:37;98858.22;;;19.37
12430;BMP280;6279;42.192;24.326;2022-09-03T02:15:14;98858.13;;;19.43
12430;BMP280;6279;42.192;24.326;2022-09-03T02:17:41;98862.34;;;19.33
12430;BMP280;6279;42.192;24.326;2022-09-03T02:20:11;98861.56;;;19.33
12430;BMP280;6279;42.192;24.326;2022-09-03T02:22:40;98866.91;;;19.26
12430;BMP280;6279;42.192;24.326;2022-09-03T02:25:07;98863.16;;;19.33
12430;BMP280;6279;42.192;24.326;2022-09-03T02:27:32;98868.03;;;19.30
12430;BMP280;6279;42.192;24.326;2022-09-03T02:29:58;98879.63;;;19.29
12430;BMP280;6279;42.192;24.326;2022-09-03T02:32:24;98870.66;;;19.19
12430;BMP280;6279;42.192;24.326;2022-09-03T02:34:50;98861.84;;;19.25
12430;BMP280;6279;42.192;24.326;2022-09-03T02:37:17;98860.81;;;19.26
12430;BMP280;6279;42.192;24.326;2022-09-03T02:39:43;98856.44;;;19.20
12430;BMP280;6279;42.192;24.326;2022-09-03T02:42:11;98860.19;;;19.12
12430;BMP280;6279;42.192;24.326;2022-09-03T02:44:43;98864.66;;;19.12
12430;BMP280;6279;42.192;24.326;2022-09-03T02:47:10;98865.09;;;19.09
12430;BMP280;6279;42.192;24.326;2022-09-03T02:49:35;98863.97;;;19.05
12430;BMP280;6279;42.192;24.326;2022-09-03T02:52:04;98868.53;;;18.98
12430;BMP280;6279;42.192;24.326;2022-09-03T02:54:31;98871.00;;;18.93
12430;BMP280;6279;42.192;24.326;2022-09-03T02:57:00;98868.22;;;18.88
12430;BMP280;6279;42.192;24.326;2022-09-03T02:59:26;98875.09;;;18.89
12430;BMP280;6279;42.192;24.326;2022-09-03T03:01:53;98864.13;;;18.92
12430;BMP280;6279;42.192;24.326;2022-09-03T03:04:19;98871.00;;;18.93
12430;BMP280;6279;42.192;24.326;2022-09-03T03:06:45;98871.59;;;18.95
12430;BMP280;6279;42.192;24.326;2022-09-03T03:09:10;98873.34;;;19.01
12430;BMP280;6279;42.192;24.326;2022-09-03T03:11:36;98872.41;;;18.96
12430;BMP280;6279;42.192;24.326;2022-09-03T03:14:02;98871.00;;;18.93
12430;BMP280;6279;42.192;24.326;2022-09-03T03:16:27;98870.19;;;18.93
12430;BMP280;6279;42.192;24.326;2022-09-03T03:18:55;98867.66;;;18.87
12430;BMP280;6279;42.192;24.326;2022-09-03T03:21:20;98872.78;;;18.82
12430;BMP280;6279;42.192;24.326;2022-09-03T03:23:45;98876.44;;;18.81
12430;BMP280;6279;42.192;24.326;2022-09-03T03:26:13;98876.59;;;18.86
12430;BMP280;6279;42.192;24.326;2022-09-03T03:28:39;98876.34;;;18.87
12430;BMP280;6279;42.192;24.326;2022-09-03T03:31:18;98879.66;;;18.83
12430;BMP280;6279;42.192;24.326;2022-09-03T03:33:44;98877.59;;;18.85
12430;BMP280;6279;42.192;24.326;2022-09-03T03:36:12;98875.22;;;18.77
12430;BMP280;6279;42.192;24.326;2022-09-03T03:38:39;98871.59;;;18.78
12430;BMP280;6279;42.192;24.326;2022-09-03T03:41:19;98875.88;;;18.79
12430;BMP280;6279;42.192;24.326;2022-09-03T03:43:46;98876.06;;;18.77
12430;BMP280;6279;42.192;24.326;2022-09-03T03:46:11;98879.81;;;18.88
12430;BMP280;6279;42.192;24.326;2022-09-03T03:48:37;98873.28;;;18.90
12430;BMP280;6279;42.192;24.326;2022-09-03T03:51:05;98888.41;;;18.94
12430;BMP280;6279;42.192;24.326;2022-09-03T03:53:36;98875.69;;;18.91
12430;BMP280;6279;42.192;24.326;2022-09-03T03:56:04;98875.69;;;18.91
12430;BMP280;6279;42.192;24.326;2022-09-03T03:58:31;98879.50;;;18.95
12430;BMP280;6279;42.192;24.326;2022-09-03T04:01:06;98888.22;;;18.96
12430;BMP280;6279;42.192;24.326;2022-09-03T04:03:32;98887.63;;;18.94
12430;BMP280;6279;42.192;24.326;2022-09-03T04:05:59;98891.28;;;18.93
12430;BMP280;6279;42.192;24.326;2022-09-03T04:08:28;98895.38;;;18.89
12430;BMP280;6279;42.192;24.326;2022-09-03T04:10:53;98889.75;;;19.03
12430;BMP280;6279;42.192;24.326;2022-09-03T04:13:19;98892.16;;;19.05
12430;BMP280;6279;42.192;24.326;2022-09-03T04:15:44;98896.75;;;19.09
12430;BMP280;6279;42.192;24.326;2022-09-03T04:18:10;98893.97;;;19.04
12430;BMP280;6279;42.192;24.326;2022-09-03T04:20:36;98901.78;;;19.10
12430;BMP280;6279;42.192;24.326;2022-09-03T04:23:02;98901.72;;;19.17
12430;BMP280;6279;42.192;24.326;2022-09-03T04:25:28;98896.13;;;19.25
12430;BMP280;6279;42.192;24.326;2022-09-03T04:27:53;98905.78;;;19.31
12430;BMP280;6279;42.192;24.326;2022-09-03T04:30:19;98906.28;;;19.39
12430;BMP280;6279;42.192;24.326;2022-09-03T04:32:45;98907.31;;;19.38
12430;BMP280;6279;42.192;24.326;2022-09-03T04:35:21;98898.84;;;19.47
12430;BMP280;6279;42.192;24.326;2022-09-03T04:37:47;98896.13;;;19.54
12430;BMP280;6279;42.192;24.326;2022-09-03T04:40:13;98907.53;;;19.65
12430;BMP280;6279;42.192;24.326;2022-09-03T04:42:38;98898.25;;;19.74
12430;BMP280;6279;42.192;24.326;2022-09-03T04:45:04;98901.16;;;19.95
12430;BMP280;6279;42.192;24.326;2022-09-03T04:47:30;98896.13;;;20.16
12430;BMP280;6279;42.192;24.326;2022-09-03T04:49:56;98895.91;;;20.40
12430;BMP280;6279;42.192;24.326;2022-09-03T04:52:22;98908.31;;;20.62
12430;BMP280;6279;42.192;24.326;2022-09-03T04:54:48;98914.91;;;20.87
12430;BMP280;6279;42.192;24.326;2022-09-03T04:57:14;98904.75;;;21.07
12430;BMP280;6279;42.192;24.326;2022-09-03T04:59:39;98907.50;;;21.11
12430;BMP280;6279;42.192;24.326;2022-09-03T05:02:05;98920.59;;;21.29
12430;BMP280;6279;42.192;24.326;2022-09-03T05:04:32;98913.16;;;21.42
12430;BMP280;6279;42.192;24.326;2022-09-03T05:06:58;98920.00;;;21.54
12430;BMP280;6279;42.192;24.326;2022-09-03T05:09:23;98924.91;;;21.62
12430;BMP280;6279;42.192;24.326;2022-09-03T05:11:49;98919.56;;;21.90
12430;BMP280;6279;42.192;24.326;2022-09-03T05:14:14;98918.72;;;22.17
12430;BMP280;6279;42.192;24.326;2022-09-03T05:16:40;98927.38;;;22.28
12430;BMP280;6279;42.192;24.326;2022-09-03T05:19:05;98927.78;;;22.53
12430;BMP280;6279;42.192;24.326;2022-09-03T05:21:32;98935.44;;;22.70
12430;BMP280;6279;42.192;24.326;2022-09-03T05:23:59;98937.16;;;22.97
12430;BMP280;6279;42.192;24.326;2022-09-03T05:26:27;98925.69;;;23.13
12430;BMP280;6279;42.192;24.326;2022-09-03T05:28:55;98939.94;;;23.07
12430;BMP280;6279;42.192;24.326;2022-09-03T05:31:23;98934.81;;;23.22
12430;BMP280;6279;42.192;24.326;2022-09-03T05:33:53;98938.94;;;23.55
12430;BMP280;6279;42.192;24.326;2022-09-03T05:36:21;98938.16;;;23.59
12430;BMP280;6279;42.192;24.326;2022-09-03T05:38:48;98928.66;;;23.89
12430;BMP280;6279;42.192;24.326;2022-09-03T05:41:15;98928.34;;;24.12
12430;BMP280;6279;42.192;24.326;2022-09-03T05:43:41;98935.97;;;24.34
12430;BMP280;6279;42.192;24.326;2022-09-03T05:46:12;98942.22;;;24.54
12430;BMP280;6279;42.192;24.326;2022-09-03T05:48:39;98934.16;;;24.80
12430;BMP280;6279;42.192;24.326;2022-09-03T05:51:07;98931.16;;;25.17
12430;BMP280;6279;42.192;24.326;2022-09-03T05:53:34;98933.41;;;25.45
12430;BMP280;6279;42.192;24.326;2022-09-03T05:56:14;98938.25;;;25.62
12430;BMP280;6279;42.192;24.326;2022-09-03T05:58:43;98935.59;;;25.72
12430;BMP280;6279;42.192;24.326;2022-09-03T06:01:13;98936.72;;;25.96
12430;BMP280;6279;42.192;24.326;2022-09-03T06:03:39;98943.94;;;26.29
12430;BMP280;6279;42.192;24.326;2022-09-03T06:06:06;98926.88;;;26.64
12430;BMP280;6279;42.192;24.326;2022-09-03T06:08:32;98936.63;;;26.93
12430;BMP280;6279;42.192;24.326;2022-09-03T06:11:01;98940.31;;;27.17
12430;BMP280;6279;42.192;24.326;2022-09-03T06:13:28;98938.91;;;27.39
12430;BMP280;6279;42.192;24.326;2022-09-03T06:16:01;98948.31;;;27.79
12430;BMP280;6279;42.192;24.326;2022-09-03T06:18:28;98942.09;;;28.21
12430;BMP280;6279;42.192;24.326;2022-09-03T06:20:55;98935.53;;;28.41
12430;BMP280;6279;42.192;24.326;2022-09-03T06:23:22;98939.81;;;28.42
12430;BMP280;6279;42.192;24.326;2022-09-03T06:25:48;98936.78;;;28.77
12430;BMP280;6279;42.192;24.326;2022-09-03T06:28:23;98946.59;;;29.32
12430;BMP280;6279;42.192;24.326;2022-09-03T06:30:51;98944.03;;;29.68
12430;BMP280;6279;42.192;24.326;2022-09-03T06:33:17;98947.78;;;29.85
12430;BMP280;6279;42.192;24.326;2022-09-03T06:35:42;98944.25;;;29.90
12430;BMP280;6279;42.192;24.326;2022-09-03T06:38:08;98939.84;;;30.30
12430;BMP280;6279;42.192;24.326;2022-09-03T06:40:37;98938.72;;;30.49
12430;BMP280;6279;42.192;24.326;2022-09-03T06:43:02;98941.97;;;30.64
12430;BMP280;6279;42.192;24.326;2022-09-03T06:45:29;98945.81;;;30.27
12430;BMP280;6279;42.192;24.326;2022-09-03T06:47:54;98943.44;;;29.89
12430;BMP280;6279;42.192;24.326;2022-09-03T06:50:20;98942.78;;;30.15
12430;BMP280;6279;42.192;24.326;2022-09-03T06:52:52;98941.69;;;30.47
12430;BMP280;6279;42.192;24.326;2022-09-03T06:55:20;98946.84;;;30.75
12430;BMP280;6279;42.192;24.326;2022-09-03T06:57:47;98944.78;;;30.85
12430;BMP280;6279;42.192;24.326;2022-09-03T07:00:13;98947.19;;;31.27
12430;BMP280;6279;42.192;24.326;2022-09-03T07:02:38;98945.19;;;31.72
12430;BMP280;6279;42.192;24.326;2022-09-03T07:05:06;98953.28;;;31.93
12430;BMP280;6279;42.192;24.326;2022-09-03T07:07:32;98957.28;;;32.17
12430;BMP280;6279;42.192;24.326;2022-09-03T07:09:57;98956.03;;;32.58
12430;BMP280;6279;42.192;24.326;2022-09-03T07:12:22;98954.28;;;32.83
12430;BMP280;6279;42.192;24.326;2022-09-03T07:14:48;98952.28;;;33.27
12430;BMP280;6279;42.192;24.326;2022-09-03T07:17:15;98952.13;;;33.02
12430;BMP280;6279;42.192;24.326;2022-09-03T07:19:40;98953.06;;;33.27
12430;BMP280;6279;42.192;24.326;2022-09-03T07:22:06;98949.59;;;33.27
12430;BMP280;6279;42.192;24.326;2022-09-03T07:24:32;98949.34;;;33.61
12430;BMP280;6279;42.192;24.326;2022-09-03T07:26:57;98953.06;;;33.27
12430;BMP280;6279;42.192;24.326;2022-09-03T07:29:23;98957.06;;;33.38
12430;BMP280;6279;42.192;24.326;2022-09-03T07:31:49;98957.03;;;34.26
12430;BMP280;6279;42.192;24.326;2022-09-03T07:34:15;98960.38;;;35.09
12430;BMP280;6279;42.192;24.326;2022-09-03T07:36:44;98952.72;;;35.76
12430;BMP280;6279;42.192;24.326;2022-09-03T07:39:12;98962.50;;;36.29
12430;BMP280;6279;42.192;24.326;2022-09-03T07:41:39;98956.22;;;36.69
12430;BMP280;6279;42.192;24.326;2022-09-03T07:44:08;98961.94;;;36.87
12430;BMP280;6279;42.192;24.326;2022-09-03T07:46:36;98958.09;;;37.00
12430;BMP280;6279;42.192;24.326;2022-09-03T07:49:02;98960.56;;;37.60
12430;BMP280;6279;42.192;24.326;2022-09-03T07:51:30;98962.41;;;37.95
12430;BMP280;6279;42.192;24.326;2022-09-03T07:53:58;98951.91;;;37.94
12430;BMP280;6279;42.192;24.326;2022-09-03T07:56:25;98960.75;;;38.56
12430;BMP280;6279;42.192;24.326;2022-09-03T07:58:51;98956.03;;;39.26
12430;BMP280;6279;42.192;24.326;2022-09-03T08:01:19;98942.75;;;39.70
12430;BMP280;6279;42.192;24.326;2022-09-03T08:03:47;98942.13;;;40.47
12430;BMP280;6279;42.192;24.326;2022-09-03T08:06:14;98944.91;;;40.91
12430;BMP280;6279;42.192;24.326;2022-09-03T08:08:40;98939.72;;;40.64
12430;BMP280;6279;42.192;24.326;2022-09-03T08:11:11;98929.00;;;41.18
12430;BMP280;6279;42.192;24.326;2022-09-03T08:13:42;98927.00;;;41.88
12430;BMP280;6279;42.192;24.326;2022-09-03T08:16:10;98927.84;;;43.88
12430;BMP280;6279;42.192;24.326;2022-09-03T08:18:37;98933.34;;;45.19
12430;BMP280;6279;42.192;24.326;2022-09-03T08:21:11;98925.13;;;45.43
12430;BMP280;6279;42.192;24.326;2022-09-03T08:23:42;98926.66;;;45.72
12430;BMP280;6279;42.192;24.326;2022-09-03T08:26:08;98922.50;;;46.41
12430;BMP280;6279;42.192;24.326;2022-09-03T08:28:35;98908.91;;;46.03
12430;BMP280;6279;42.192;24.326;2022-09-03T08:31:20;98900.78;;;45.28
12430;BMP280;6279;42.192;24.326;2022-09-03T08:33:50;98899.84;;;46.06
12430;BMP280;6279;42.192;24.326;2022-09-03T08:36:20;98886.19;;;47.16
12430;BMP280;6279;42.192;24.326;2022-09-03T08:38:49;98878.91;;;48.38
12430;BMP280;6279;42.192;24.326;2022-09-03T08:49:13;98880.91;;;47.72
12430;BMP280;6279;42.192;24.326;2022-09-03T08:51:41;98882.44;;;47.80
12430;BMP280;6279;42.192;24.326;2022-09-03T08:54:09;98870.69;;;48.34
12430;BMP280;6279;42.192;24.326;2022-09-03T08:56:38;98879.22;;;47.84
12430;BMP280;6279;42.192;24.326;2022-09-03T08:59:05;98878.28;;;47.18
12430;BMP280;6279;42.192;24.326;2022-09-03T09:05:11;98872.28;;;46.84
12430;BMP280;6279;42.192;24.326;2022-09-03T09:07:44;98875.28;;;44.97
12430;BMP280;6279;42.192;24.326;2022-09-03T09:10:15;98864.63;;;44.58
12430;BMP280;6279;42.192;24.326;2022-09-03T09:13:09;98867.31;;;44.27
12430;BMP280;6279;42.192;24.326;2022-09-03T09:21:06;98858.44;;;46.30
12430;BMP280;6279;42.192;24.326;2022-09-03T09:23:43;98861.34;;;47.20
12430;BMP280;6279;42.192;24.326;2022-09-03T09:26:13;98862.22;;;48.19
12430;BMP280;6279;42.192;24.326;2022-09-03T09:28:39;98868.75;;;48.31
12430;BMP280;6279;42.192;24.326;2022-09-03T09:31:10;98861.78;;;47.91
12430;BMP280;6279;42.192;24.326;2022-09-03T09:33:39;98877.72;;;46.37
12430;BMP280;6279;42.192;24.326;2022-09-03T09:36:10;98873.47;;;46.83
12430;BMP280;6279;42.192;24.326;2022-09-03T09:38:39;98863.59;;;46.89
12430;BMP280;6279;42.192;24.326;2022-09-03T09:43:37;98853.13;;;47.89
12430;BMP280;6279;42.192;24.326;2022-09-03T09:46:24;98855.88;;;48.51
12430;BMP280;6279;42.192;24.326;2022-09-03T09:48:53;98856.50;;;49.10
12430;BMP280;6279;42.192;24.326;2022-09-03T09:51:22;98860.38;;;48.90
12430;BMP280;6279;42.192;24.326;2022-09-03T09:54:03;98853.41;;;48.30
12430;BMP280;6279;42.192;24.326;2022-09-03T09:56:36;98846.44;;;47.54
12430;BMP280;6279;42.192;24.326;2022-09-03T09:59:07;98843.50;;;46.92
12430;BMP280;6279;42.192;24.326;2022-09-03T10:01:33;98848.97;;;47.41
12430;BMP280;6279;42.192;24.326;2022-09-03T10:04:08;98843.16;;;46.86
12430;BMP280;6279;42.192;24.326;2022-09-03T10:06:34;98837.69;;;46.23
12430;BMP280;6279;42.192;24.326;2022-09-03T10:09:20;98846.03;;;46.66
12430;BMP280;6279;42.192;24.326;2022-09-03T10:14:36;98843.88;;;44.77
12430;BMP280;6279;42.192;24.326;2022-09-03T10:23:04;98836.06;;;44.90
12430;BMP280;6279;42.192;24.326;2022-09-03T10:25:45;98836.91;;;43.69
12430;BMP280;6279;42.192;24.326;2022-09-03T10:28:15;98848.53;;;44.39
12430;BMP280;6279;42.192;24.326;2022-09-03T10:33:43;98844.66;;;44.67
12430;BMP280;6279;42.192;24.326;2022-09-03T10:36:33;98844.66;;;44.88
12430;BMP280;6279;42.192;24.326;2022-09-03T10:39:10;98834.44;;;45.30
12430;BMP280;6279;42.192;24.326;2022-09-03T10:47:12;98833.50;;;43.92
12430;BMP280;6279;42.192;24.326;2022-09-03T10:50:13;98842.97;;;44.22
12430;BMP280;6279;42.192;24.326;2022-09-03T10:55:39;98843.06;;;44.46
12430;BMP280;6279;42.192;24.326;2022-09-03T10:58:27;98844.69;;;44.74
12430;BMP280;6279;42.192;24.326;2022-09-03T11:06:53;98838.63;;;44.04
12430;BMP280;6279;42.192;24.326;2022-09-03T11:09:24;98838.78;;;43.55
12430;BMP280;6279;42.192;24.326;2022-09-03T11:11:58;98829.47;;;43.79
12430;BMP280;6279;42.192;24.326;2022-09-03T11:14:33;98831.63;;;43.40
12430;BMP280;6279;42.192;24.326;2022-09-03T11:17:08;98839.81;;;42.44
12430;BMP280;6279;42.192;24.326;2022-09-03T11:19:51;98830.22;;;41.93
12430;BMP280;6279;42.192;24.326;2022-09-03T11:22:20;98829.41;;;41.31
12430;BMP280;6279;42.192;24.326;2022-09-03T11:24:53;98824.13;;;40.50
12430;BMP280;6279;42.192;24.326;2022-09-03T11:30:11;98827.19;;;39.03
12430;BMP280;6279;42.192;24.326;2022-09-03T11:32:55;98828.97;;;38.23
12430;BMP280;6279;42.192;24.326;2022-09-03T11:35:36;98824.97;;;38.33
12430;BMP280;6279;42.192;24.326;2022-09-03T11:41:32;98829.09;;;38.42
12430;BMP280;6279;42.192;24.326;2022-09-03T11:44:10;98825.25;;;38.01
12430;BMP280;6279;42.192;24.326;2022-09-03T11:46:52;98828.88;;;37.66
12430;BMP280;6279;42.192;24.326;2022-09-03T11:49:27;98828.09;;;37.66
12430;BMP280;6279;42.192;24.326;2022-09-03T11:52:04;98819.47;;;37.75
12430;BMP280;6279;42.192;24.326;2022-09-03T11:54:43;98832.13;;;37.72
12430;BMP280;6279;42.192;24.326;2022-09-03T11:57:11;98839.25;;;37.76
12430;BMP280;6279;42.192;24.326;2022-09-03T11:59:39;98835.59;;;37.84
12430;BMP280;6279;42.192;24.326;2022-09-03T12:07:18;98819.03;;;37.89
12430;BMP280;6279;42.192;24.326;2022-09-03T12:12:39;98818.38;;;37.65
12430;BMP280;6279;42.192;24.326;2022-09-03T12:20:45;98826.19;;;36.37
12430;BMP280;6279;42.192;24.326;2022-09-03T12:23:29;98824.78;;;36.86
12430;BMP280;6279;42.192;24.326;2022-09-03T12:25:59;98824.00;;;36.86
12430;BMP280;6279;42.192;24.326;2022-09-03T12:28:27;98816.38;;;36.44
12430;BMP280;6279;42.192;24.326;2022-09-03T12:31:04;98819.03;;;35.49
12430;BMP280;6279;42.192;24.326;2022-09-03T12:33:30;98823.25;;;35.38
12430;BMP280;6279;42.192;24.326;2022-09-03T12:36:00;98814.97;;;35.43
12430;BMP280;6279;42.192;24.326;2022-09-03T12:38:27;98821.03;;;35.60
12430;BMP280;6279;42.192;24.326;2022-09-03T12:40:53;98813.47;;;35.06
12430;BMP280;6279;42.192;24.326;2022-09-03T12:43:19;98805.34;;;34.24
12430;BMP280;6279;42.192;24.326;2022-09-03T12:45:48;98814.16;;;33.79
12430;BMP280;6279;42.192;24.326;2022-09-03T12:48:19;98813.34;;;33.79
12430;BMP280;6279;42.192;24.326;2022-09-03T12:50:46;98814.00;;;34.01
12430;BMP280;6279;42.192;24.326;2022-09-03T12:53:17;98809.13;;;34.40
12430;BMP280;6279;42.192;24.326;2022-09-03T12:55:51;98807.41;;;34.72
12430;BMP280;6279;42.192;24.326;2022-09-03T12:58:22;98813.31;;;34.65
12430;BMP280;6279;42.192;24.326;2022-09-03T13:00:55;98817.00;;;34.61
12430;BMP280;6279;42.192;24.326;2022-09-03T13:05:55;98824.94;;;33.46
12430;BMP280;6279;42.192;24.326;2022-09-03T13:08:25;98830.38;;;33.00
12430;BMP280;6279;42.192;24.326;2022-09-03T13:10:57;98827.78;;;32.78
12430;BMP280;6279;42.192;24.326;2022-09-03T13:13:28;98824.75;;;32.41
12430;BMP280;6279;42.192;24.326;2022-09-03T13:21:53;98820.00;;;31.87
12430;BMP280;6279;42.192;24.326;2022-09-03T13:35:05;98817.97;;;31.71
12430;BMP280;6279;42.192;24.326;2022-09-03T13:37:44;98818.50;;;31.60
12430;BMP280;6279;42.192;24.326;2022-09-03T13:40:34;98817.91;;;31.63
12430;BMP280;6279;42.192;24.326;2022-09-03T13:43:27;98822.69;;;31.66
12430;BMP280;6279;42.192;24.326;2022-09-03T13:46:07;98809.94;;;31.79
12430;BMP280;6279;42.192;24.326;2022-09-03T13:51:28;98807.88;;;31.55
12430;BMP280;6279;42.192;24.326;2022-09-03T13:56:52;98807.19;;;31.50
12430;BMP280;6279;42.192;24.326;2022-09-03T14:02:01;98810.84;;;31.19
12430;BMP280;6279;42.192;24.326;2022-09-03T14:04:50;98816.03;;;30.89
12430;BMP280;6279;42.192;24.326;2022-09-03T14:07:47;98809.69;;;30.98
12430;BMP280;6279;42.192;24.326;2022-09-03T14:10:44;98800.88;;;31.32
12430;BMP280;6279;42.192;24.326;2022-09-03T14:22:12;98811.84;;;32.22
12430;BMP280;6279;42.192;24.326;2022-09-03T14:24:52;98819.69;;;32.10
12430;BMP280;6279;42.192;24.326;2022-09-03T14:27:25;98820.22;;;31.77
12430;BMP280;6279;42.192;24.326;2022-09-03T14:29:59;98835.56;;;31.42
12430;BMP280;6279;42.192;24.326;2022-09-03T14:39:06;98820.22;;;30.95
12430;BMP280;6279;42.192;24.326;2022-09-03T14:47:27;98825.59;;;31.56
12430;BMP280;6279;42.192;24.326;2022-09-03T14:50:27;98821.31;;;31.55
12430;BMP280;6279;42.192;24.326;2022-09-03T14:53:09;98826.88;;;31.45
12430;BMP280;6279;42.192;24.326;2022-09-03T14:58:25;98818.72;;;31.15
12430;BMP280;6279;42.192;24.326;2022-09-03T15:01:04;98828.59;;;30.93
12430;BMP280;6279;42.192;24.326;2022-09-03T15:11:21;98843.72;;;30.63
12430;BMP280;6279;42.192;24.326;2022-09-03T15:13:52;98848.28;;;30.63
12430;BMP280;6279;42.192;24.326;2022-09-03T15:17:13;98850.13;;;30.49
12430;BMP280;6279;42.192;24.326;2022-09-03T15:19:44;98854.25;;;30.15
12430;BMP280;6279;42.192;24.326;2022-09-03T15:22:36;98862.28;;;30.15
12430;BMP280;6279;42.192;24.326;2022-09-03T15:36:51;98863.88;;;29.67
12430;BMP280;6279;42.192;24.326;2022-09-03T15:39:27;98863.94;;;29.62
12430;BMP280;6279;42.192;24.326;2022-09-03T15:41:58;98873.00;;;29.48
12430;BMP280;6279;42.192;24.326;2022-09-03T15:44:27;98871.38;;;29.28
12430;BMP280;6279;42.192;24.326;2022-09-03T15:47:01;98863.63;;;29.27
12430;BMP280;6279;42.192;24.326;2022-09-03T15:49:51;98876.50;;;29.25
12430;BMP280;6279;42.192;24.326;2022-09-03T15:52:28;98879.34;;;29.15
12430;BMP280;6279;42.192;24.326;2022-09-03T15:55:11;98871.53;;;28.96
12430;BMP280;6279;42.192;24.326;2022-09-03T15:58:02;98875.06;;;28.68
12430;BMP280;6279;42.192;24.326;2022-09-03T16:00:47;98870.59;;;28.59
12430;BMP280;6279;42.192;24.326;2022-09-03T16:03:19;98881.84;;;28.33
12430;BMP280;6279;42.192;24.326;2022-09-03T16:06:06;98881.38;;;28.21
12430;BMP280;6279;42.192;24.326;2022-09-03T16:08:54;98887.41;;;28.09
12430;BMP280;6279;42.192;24.326;2022-09-03T16:11:31;98890.47;;;27.93
12430;BMP280;6279;42.192;24.326;2022-09-03T16:19:13;98890.31;;;27.79
12430;BMP280;6279;42.192;24.326;2022-09-03T16:21:59;98900.75;;;27.71
12430;BMP280;6279;42.192;24.326;2022-09-03T16:27:14;98888.13;;;27.44
12430;BMP280;6279;42.192;24.326;2022-09-03T16:30:11;98895.88;;;27.40
12430;BMP280;6279;42.192;24.326;2022-09-03T16:33:05;98898.06;;;27.29
12430;BMP280;6279;42.192;24.326;2022-09-03T16:35:39;98896.75;;;27.16
12430;BMP280;6279;42.192;24.326;2022-09-03T16:41:22;98905.69;;;26.87
12430;BMP280;6279;42.192;24.326;2022-09-03T16:46:34;98901.97;;;26.88
12430;BMP280;6279;42.192;24.326;2022-09-03T16:49:35;98907.84;;;26.85
12430;BMP280;6279;42.192;24.326;2022-09-03T17:00:00;98916.97;;;26.45
12430;BMP280;6279;42.192;24.326;2022-09-03T17:08:03;98923.66;;;25.94
12430;BMP280;6279;42.192;24.326;2022-09-03T17:10:48;98937.97;;;25.69
12430;BMP280;6279;42.192;24.326;2022-09-03T17:19:05;98954.72;;;25.50
12430;BMP280;6279;42.192;24.326;2022-09-03T17:27:14;98958.53;;;25.13
12430;BMP280;6279;42.192;24.326;2022-09-03T17:30:04;98971.00;;;25.03
12430;BMP280;6279;42.192;24.326;2022-09-03T17:35:20;98976.38;;;25.08
12430;BMP280;6279;42.192;24.326;2022-09-03T17:40:46;98968.56;;;24.96
12430;BMP280;6279;42.192;24.326;2022-09-03T17:43:29;98979.41;;;24.85
12430;BMP280;6279;42.192;24.326;2022-09-03T17:46:07;98984.16;;;24.78
12430;BMP280;6279;42.192;24.326;2022-09-03T17:54:14;99013.28;;;24.63
12430;BMP280;6279;42.192;24.326;2022-09-03T17:56:55;99020.69;;;24.57
12430;BMP280;6279;42.192;24.326;2022-09-03T17:59:44;99020.16;;;24.55
12430;BMP280;6279;42.192;24.326;2022-09-03T18:04:53;99043.47;;;24.48
12430;BMP280;6279;42.192;24.326;2022-09-03T18:10:31;99062.09;;;24.48
12430;BMP280;6279;42.192;24.326;2022-09-03T18:15:59;99074.25;;;24.39
12430;BMP280;6279;42.192;24.326;2022-09-03T18:18:31;99079.34;;;24.45
12430;BMP280;6279;42.192;24.326;2022-09-03T18:20:59;99085.53;;;24.51
12430;BMP280;6279;42.192;24.326;2022-09-03T18:26:48;99091.63;;;24.77
12430;BMP280;6279;42.192;24.326;2022-09-03T18:29:42;99095.38;;;24.81
12430;BMP280;6279;42.192;24.326;2022-09-03T18:32:28;99096.47;;;24.85
12430;BMP280;6279;42.192;24.326;2022-09-03T18:35:13;99098.09;;;24.86
12430;BMP280;6279;42.192;24.326;2022-09-03T18:37:57;99091.22;;;24.90
12430;BMP280;6279;42.192;24.326;2022-09-03T18:41:06;99098.41;;;24.89
12430;BMP280;6279;42.192;24.326;2022-09-03T18:46:58;99113.50;;;24.84
12430;BMP280;6279;42.192;24.326;2022-09-03T18:53:11;99110.63;;;24.64
12430;BMP280;6279;42.192;24.326;2022-09-03T18:59:46;99117.94;;;24.48
12430;BMP280;6279;42.192;24.326;2022-09-03T19:02:40;99125.03;;;24.38
12430;BMP280;6279;42.192;24.326;2022-09-03T19:11:30;99128.88;;;24.25